QTR19C YBAS-NFFN
Flight info
| Callsign | QTR19C |
|---|---|
| Flight time | 4h 49m |
| Altitude | 41000 |
| Route | PULOL T11 ROM G326 WOODY Y79 BN B578 TEBUR B602 ATPEN B599 AGUTA |
| Aircraft | A359/H-SDE2E3GHIJ3J4J5LM1ORWXY/LB1D1 |
Departure
| Time | 2026-05-03 22:19 |
|---|---|
| Airport | Alice Springs Airport (YBAS) |
Arrival
| Time | 2026-05-04 03:08 |
|---|---|
| Airport | Nadi International Airport (NFFN) |
| Time | Latitude | Longitude | Altitude | Speed | Heading |
|---|---|---|---|---|---|
| 2026-05-03 21:52 | -23.80283 | 133.90113 | 1789 ft | 0 kts | 74° |
| 2026-05-03 22:10 | -23.80284 | 133.90115 | 1789 ft | 0 kts | 80° |
| 2026-05-03 22:10 | -23.80288 | 133.90121 | 1786 ft | 2 kts | 123° |
| 2026-05-03 22:11 | -23.80298 | 133.90122 | 1788 ft | 2 kts | 176° |
| 2026-05-03 22:11 | -23.80328 | 133.90094 | 1787 ft | 11 kts | 221° |
| 2026-05-03 22:11 | -23.80368 | 133.90065 | 1788 ft | 0 kts | 210° |
| 2026-05-03 22:14 | -23.80371 | 133.90063 | 1759 ft | 4 kts | 210° |
| 2026-05-03 22:14 | -23.80436 | 133.90027 | 1787 ft | 12 kts | 194° |
| 2026-05-03 22:14 | -23.80503 | 133.90084 | 1786 ft | 20 kts | 124° |
| 2026-05-03 22:15 | -23.80571 | 133.90209 | 1788 ft | 14 kts | 120° |
| 2026-05-03 22:15 | -23.80625 | 133.90310 | 1787 ft | 17 kts | 120° |
| 2026-05-03 22:15 | -23.80689 | 133.90430 | 1786 ft | 19 kts | 120° |
| 2026-05-03 22:15 | -23.80761 | 133.90563 | 1786 ft | 21 kts | 120° |
| 2026-05-03 22:16 | -23.80839 | 133.90706 | 1785 ft | 23 kts | 121° |
| 2026-05-03 22:16 | -23.80921 | 133.90858 | 1786 ft | 24 kts | 120° |
| 2026-05-03 22:16 | -23.81006 | 133.91015 | 1785 ft | 25 kts | 121° |
| 2026-05-03 22:16 | -23.81094 | 133.91178 | 1786 ft | 25 kts | 120° |
| 2026-05-03 22:17 | -23.81158 | 133.91345 | 1785 ft | 22 kts | 99° |
| 2026-05-03 22:17 | -23.81188 | 133.91388 | 1785 ft | 2 kts | 191° |
| 2026-05-03 22:17 | -23.81190 | 133.91373 | 1785 ft | 2 kts | 274° |
| 2026-05-03 22:17 | -23.81182 | 133.91345 | 1785 ft | 5 kts | 292° |
| 2026-05-03 22:18 | -23.81173 | 133.91326 | 1787 ft | 0 kts | 298° |
| 2026-05-03 22:18 | -23.81139 | 133.91262 | 1784 ft | 44 kts | 300° |
| 2026-05-03 22:18 | -23.80819 | 133.90668 | 1785 ft | 135 kts | 301° |
| 2026-05-03 22:18 | -23.80222 | 133.89552 | 1990 ft | 194 kts | 299° |
| 2026-05-03 22:19 | -23.79547 | 133.88297 | 3096 ft | 195 kts | 302° |
| 2026-05-03 22:19 | -23.78713 | 133.86892 | 3659 ft | 239 kts | 304° |
| 2026-05-03 22:19 | -23.77618 | 133.85458 | 4563 ft | 262 kts | 317° |
| 2026-05-03 22:19 | -23.76020 | 133.84428 | 5674 ft | 276 kts | 340° |
| 2026-05-03 22:20 | -23.74087 | 133.84169 | 6869 ft | 287 kts | 1° |
| 2026-05-03 22:20 | -23.72119 | 133.84682 | 8075 ft | 296 kts | 18° |
| 2026-05-03 22:20 | -23.70335 | 133.85724 | 9272 ft | 283 kts | 30° |
| 2026-05-03 22:20 | -23.68839 | 133.87041 | 10308 ft | 269 kts | 41° |
| 2026-05-03 22:21 | -23.67700 | 133.88574 | 11284 ft | 254 kts | 53° |
| 2026-05-03 22:21 | -23.66948 | 133.90236 | 12249 ft | 234 kts | 66° |
| 2026-05-03 22:21 | -23.66475 | 133.91931 | 12853 ft | 230 kts | 73° |
| 2026-05-03 22:21 | -23.66244 | 133.93654 | 13291 ft | 234 kts | 85° |
| 2026-05-03 22:22 | -23.66336 | 133.95423 | 13693 ft | 234 kts | 97° |
| 2026-05-03 22:22 | -23.66713 | 133.97148 | 14112 ft | 234 kts | 107° |
| 2026-05-03 22:22 | -23.67214 | 133.98835 | 14471 ft | 234 kts | 109° |
| 2026-05-03 22:22 | -23.67744 | 134.00521 | 14822 ft | 235 kts | 109° |
| 2026-05-03 22:23 | -23.68278 | 134.02211 | 15177 ft | 236 kts | 109° |
| 2026-05-03 22:23 | -23.68820 | 134.03933 | 15391 ft | 246 kts | 109° |
| 2026-05-03 22:23 | -23.69389 | 134.05745 | 15574 ft | 258 kts | 109° |
| 2026-05-03 22:23 | -23.69983 | 134.07642 | 15777 ft | 271 kts | 109° |
| 2026-05-03 22:24 | -23.70605 | 134.09631 | 15971 ft | 283 kts | 109° |
| 2026-05-03 22:24 | -23.71255 | 134.11711 | 16195 ft | 296 kts | 109° |
| 2026-05-03 22:24 | -23.71934 | 134.13886 | 16413 ft | 309 kts | 109° |
| 2026-05-03 22:24 | -23.72629 | 134.16152 | 16638 ft | 322 kts | 107° |
| 2026-05-03 22:25 | -23.73261 | 134.18542 | 16867 ft | 334 kts | 105° |
| 2026-05-03 22:25 | -23.73900 | 134.21028 | 17091 ft | 346 kts | 105° |
| 2026-05-03 22:25 | -23.74549 | 134.23604 | 17319 ft | 358 kts | 105° |
| 2026-05-03 22:25 | -23.75210 | 134.26268 | 17544 ft | 369 kts | 105° |
| 2026-05-03 22:26 | -23.75885 | 134.29016 | 17770 ft | 380 kts | 105° |
| 2026-05-03 22:26 | -23.76575 | 134.31834 | 17986 ft | 390 kts | 105° |
| 2026-05-03 22:26 | -23.77284 | 134.34732 | 18199 ft | 399 kts | 105° |
| 2026-05-03 22:26 | -23.78006 | 134.37689 | 18410 ft | 408 kts | 105° |
| 2026-05-03 22:27 | -23.78743 | 134.40706 | 18639 ft | 414 kts | 105° |
| 2026-05-03 22:27 | -23.79490 | 134.43764 | 18922 ft | 419 kts | 104° |
| 2026-05-03 22:27 | -23.80237 | 134.46821 | 19194 ft | 424 kts | 104° |
| 2026-05-03 22:27 | -23.80997 | 134.49933 | 19546 ft | 426 kts | 104° |
| 2026-05-03 22:28 | -23.81762 | 134.53070 | 19899 ft | 428 kts | 104° |
| 2026-05-03 22:28 | -23.82529 | 134.56216 | 20240 ft | 430 kts | 104° |
| 2026-05-03 22:28 | -23.83298 | 134.59379 | 20606 ft | 432 kts | 104° |
| 2026-05-03 22:28 | -23.84070 | 134.62554 | 20954 ft | 434 kts | 104° |
| 2026-05-03 22:29 | -23.84849 | 134.65761 | 21226 ft | 438 kts | 104° |
| 2026-05-03 22:29 | -23.85632 | 134.68988 | 21546 ft | 440 kts | 104° |
| 2026-05-03 22:29 | -23.86419 | 134.72233 | 21886 ft | 443 kts | 104° |
| 2026-05-03 22:29 | -23.87207 | 134.75487 | 22211 ft | 445 kts | 104° |
| 2026-05-03 22:30 | -23.88001 | 134.78768 | 22520 ft | 447 kts | 104° |
| 2026-05-03 22:30 | -23.88797 | 134.82061 | 22833 ft | 450 kts | 104° |
| 2026-05-03 22:30 | -23.89596 | 134.85373 | 23152 ft | 452 kts | 104° |
| 2026-05-03 22:30 | -23.90400 | 134.88703 | 23451 ft | 454 kts | 104° |
| 2026-05-03 22:31 | -23.91206 | 134.92048 | 23751 ft | 456 kts | 104° |
| 2026-05-03 22:31 | -23.92014 | 134.95405 | 24004 ft | 459 kts | 104° |
| 2026-05-03 22:31 | -23.92829 | 134.98795 | 24204 ft | 462 kts | 104° |
| 2026-05-03 22:31 | -23.93648 | 135.02201 | 24392 ft | 466 kts | 103° |
| 2026-05-03 22:32 | -23.94472 | 135.05638 | 24574 ft | 469 kts | 103° |
| 2026-05-03 22:32 | -23.95303 | 135.09104 | 24780 ft | 472 kts | 103° |
| 2026-05-03 22:32 | -23.96135 | 135.12579 | 24983 ft | 475 kts | 103° |
| 2026-05-03 22:32 | -23.96973 | 135.16083 | 25198 ft | 477 kts | 103° |
| 2026-05-03 22:33 | -23.97816 | 135.19609 | 25392 ft | 480 kts | 103° |
| 2026-05-03 22:33 | -23.98660 | 135.23145 | 25582 ft | 483 kts | 103° |
| 2026-05-03 22:33 | -23.99513 | 135.26720 | 25696 ft | 488 kts | 103° |
| 2026-05-03 22:33 | -24.00372 | 135.30325 | 25866 ft | 491 kts | 103° |
| 2026-05-03 22:34 | -24.01232 | 135.33941 | 26107 ft | 493 kts | 103° |
| 2026-05-03 22:34 | -24.02098 | 135.37584 | 26308 ft | 496 kts | 103° |
| 2026-05-03 22:34 | -24.02966 | 135.41243 | 26464 ft | 500 kts | 103° |
| 2026-05-03 22:34 | -24.03842 | 135.44940 | 26658 ft | 503 kts | 103° |
| 2026-05-03 22:35 | -24.04719 | 135.48648 | 26872 ft | 505 kts | 103° |
| 2026-05-03 22:35 | -24.05601 | 135.52375 | 27089 ft | 508 kts | 103° |
| 2026-05-03 22:35 | -24.06489 | 135.56132 | 27300 ft | 511 kts | 103° |
| 2026-05-03 22:35 | -24.07378 | 135.59899 | 27489 ft | 514 kts | 103° |
| 2026-05-03 22:36 | -24.08275 | 135.63707 | 27658 ft | 518 kts | 103° |
| 2026-05-03 22:36 | -24.09174 | 135.67526 | 27901 ft | 521 kts | 103° |
| 2026-05-03 22:36 | -24.10081 | 135.71383 | 28133 ft | 523 kts | 102° |
| 2026-05-03 22:36 | -24.10988 | 135.75245 | 28362 ft | 526 kts | 102° |
| 2026-05-03 22:37 | -24.11902 | 135.79138 | 28600 ft | 529 kts | 102° |
| 2026-05-03 22:37 | -24.12819 | 135.83054 | 28802 ft | 532 kts | 102° |
| 2026-05-03 22:37 | -24.13739 | 135.86986 | 29033 ft | 535 kts | 102° |
| 2026-05-03 22:37 | -24.14666 | 135.90953 | 29259 ft | 538 kts | 102° |
| 2026-05-03 22:38 | -24.15583 | 135.94879 | 29479 ft | 541 kts | 102° |
| 2026-05-03 22:38 | -24.16517 | 135.98885 | 29702 ft | 544 kts | 102° |
| 2026-05-03 22:38 | -24.17453 | 136.02907 | 29916 ft | 548 kts | 102° |
| 2026-05-03 22:38 | -24.18408 | 136.07014 | 30146 ft | 550 kts | 102° |
| 2026-05-03 22:39 | -24.19343 | 136.11037 | 30374 ft | 553 kts | 102° |
| 2026-05-03 22:39 | -24.20291 | 136.15125 | 30598 ft | 555 kts | 102° |
| 2026-05-03 22:39 | -24.21256 | 136.19291 | 30848 ft | 557 kts | 102° |
| 2026-05-03 22:39 | -24.22208 | 136.23408 | 31084 ft | 560 kts | 102° |
| 2026-05-03 22:40 | -24.23152 | 136.27495 | 31329 ft | 561 kts | 102° |
| 2026-05-03 22:40 | -24.24122 | 136.31698 | 31575 ft | 563 kts | 102° |
| 2026-05-03 22:40 | -24.25084 | 136.35870 | 31809 ft | 565 kts | 102° |
| 2026-05-03 22:40 | -24.26046 | 136.40053 | 32040 ft | 567 kts | 101° |
| 2026-05-03 22:41 | -24.26998 | 136.44198 | 32269 ft | 569 kts | 101° |
| 2026-05-03 22:41 | -24.27976 | 136.48458 | 32487 ft | 571 kts | 101° |
| 2026-05-03 22:41 | -24.28945 | 136.52688 | 32721 ft | 573 kts | 101° |
| 2026-05-03 22:41 | -24.29916 | 136.56931 | 32937 ft | 575 kts | 101° |
| 2026-05-03 22:42 | -24.30889 | 136.61186 | 33148 ft | 576 kts | 101° |
| 2026-05-03 22:42 | -24.31850 | 136.65399 | 33363 ft | 578 kts | 101° |
| 2026-05-03 22:42 | -24.32827 | 136.69684 | 33573 ft | 580 kts | 101° |
| 2026-05-03 22:42 | -24.33804 | 136.73976 | 33787 ft | 582 kts | 101° |
| 2026-05-03 22:43 | -24.34783 | 136.78284 | 33996 ft | 583 kts | 101° |
| 2026-05-03 22:43 | -24.35763 | 136.82604 | 34208 ft | 585 kts | 101° |
| 2026-05-03 22:43 | -24.36747 | 136.86946 | 34386 ft | 586 kts | 101° |
| 2026-05-03 22:43 | -24.37730 | 136.91288 | 34563 ft | 588 kts | 101° |
| 2026-05-03 22:44 | -24.38715 | 136.95645 | 34759 ft | 589 kts | 101° |
| 2026-05-03 22:44 | -24.39700 | 137.00006 | 34920 ft | 591 kts | 100° |
| 2026-05-03 22:44 | -24.40688 | 137.04390 | 35072 ft | 593 kts | 100° |
| 2026-05-03 22:44 | -24.41675 | 137.08774 | 35362 ft | 590 kts | 100° |
| 2026-05-03 22:45 | -24.42657 | 137.13136 | 35695 ft | 588 kts | 100° |
| 2026-05-03 22:45 | -24.43636 | 137.17496 | 35935 ft | 588 kts | 100° |
| 2026-05-03 22:45 | -24.44612 | 137.21854 | 36191 ft | 588 kts | 100° |
| 2026-05-03 22:45 | -24.45585 | 137.26201 | 36455 ft | 587 kts | 100° |
| 2026-05-03 22:46 | -24.46230 | 137.29086 | 36617 ft | 587 kts | 100° |
| 2026-05-03 22:46 | -24.47200 | 137.33433 | 36876 ft | 586 kts | 100° |
| 2026-05-03 22:46 | -24.48167 | 137.37772 | 37136 ft | 586 kts | 100° |
| 2026-05-03 22:46 | -24.49133 | 137.42113 | 37391 ft | 585 kts | 100° |
| 2026-05-03 22:47 | -24.50098 | 137.46457 | 37656 ft | 584 kts | 100° |
| 2026-05-03 22:47 | -24.51056 | 137.50772 | 37907 ft | 584 kts | 100° |
| 2026-05-03 22:47 | -24.52018 | 137.55113 | 38165 ft | 583 kts | 100° |
| 2026-05-03 22:47 | -24.52975 | 137.59436 | 38407 ft | 582 kts | 100° |
| 2026-05-03 22:48 | -24.53929 | 137.63754 | 38642 ft | 582 kts | 100° |
| 2026-05-03 22:48 | -24.54882 | 137.68071 | 38888 ft | 582 kts | 100° |
| 2026-05-03 22:48 | -24.55832 | 137.72385 | 39057 ft | 581 kts | 100° |
| 2026-05-03 22:48 | -24.56781 | 137.76697 | 39243 ft | 581 kts | 100° |
| 2026-05-03 22:49 | -24.57729 | 137.81014 | 39418 ft | 580 kts | 100° |
| 2026-05-03 22:49 | -24.58675 | 137.85326 | 39580 ft | 581 kts | 100° |
| 2026-05-03 22:49 | -24.59619 | 137.89636 | 39731 ft | 580 kts | 100° |
| 2026-05-03 22:49 | -24.60563 | 137.93948 | 39894 ft | 580 kts | 100° |
| 2026-05-03 22:50 | -24.61503 | 137.98253 | 40058 ft | 580 kts | 100° |
| 2026-05-03 22:50 | -24.62443 | 138.02563 | 40212 ft | 580 kts | 100° |
| 2026-05-03 22:50 | -24.63381 | 138.06870 | 40333 ft | 580 kts | 101° |
| 2026-05-03 22:50 | -24.64320 | 138.11187 | 40464 ft | 580 kts | 101° |
| 2026-05-03 22:51 | -24.65256 | 138.15497 | 40612 ft | 580 kts | 101° |
| 2026-05-03 22:51 | -24.66190 | 138.19802 | 40754 ft | 579 kts | 101° |
| 2026-05-03 22:51 | -24.67124 | 138.24115 | 40888 ft | 579 kts | 101° |
| 2026-05-03 22:52 | -24.68972 | 138.32669 | 41109 ft | 579 kts | 101° |
| 2026-05-03 22:52 | -24.70834 | 138.41317 | 41196 ft | 583 kts | 101° |
| 2026-05-03 22:53 | -24.72695 | 138.49984 | 41190 ft | 583 kts | 101° |
| 2026-05-03 22:53 | -24.74556 | 138.58668 | 41191 ft | 583 kts | 101° |
| 2026-05-03 22:54 | -24.76408 | 138.67341 | 41195 ft | 583 kts | 101° |
| 2026-05-03 22:54 | -24.78258 | 138.76032 | 41189 ft | 583 kts | 101° |
| 2026-05-03 22:55 | -24.80102 | 138.84720 | 41190 ft | 583 kts | 101° |
| 2026-05-03 22:55 | -24.81940 | 138.93411 | 41189 ft | 584 kts | 101° |
| 2026-05-03 22:56 | -24.83776 | 139.02112 | 41191 ft | 583 kts | 101° |
| 2026-05-03 22:56 | -24.85605 | 139.10809 | 41193 ft | 583 kts | 101° |
| 2026-05-03 22:57 | -24.87430 | 139.19513 | 41190 ft | 583 kts | 101° |
| 2026-05-03 22:57 | -24.89249 | 139.28218 | 41190 ft | 583 kts | 101° |
| 2026-05-03 22:58 | -24.91064 | 139.36925 | 41192 ft | 583 kts | 101° |
| 2026-05-03 22:58 | -24.92873 | 139.45636 | 41191 ft | 583 kts | 101° |
| 2026-05-03 22:59 | -24.94676 | 139.54343 | 41188 ft | 583 kts | 101° |
| 2026-05-03 22:59 | -24.96477 | 139.63064 | 41190 ft | 583 kts | 101° |
| 2026-05-03 23:00 | -24.98272 | 139.71787 | 41193 ft | 583 kts | 101° |
| 2026-05-03 23:00 | -25.00049 | 139.80449 | 41195 ft | 583 kts | 101° |
| 2026-05-03 23:01 | -25.01833 | 139.89171 | 41195 ft | 583 kts | 101° |
| 2026-05-03 23:01 | -25.03612 | 139.97896 | 41179 ft | 583 kts | 100° |
| 2026-05-03 23:02 | -25.05384 | 140.06612 | 41192 ft | 582 kts | 100° |
| 2026-05-03 23:02 | -25.07150 | 140.15331 | 41188 ft | 582 kts | 100° |
| 2026-05-03 23:03 | -25.08908 | 140.24036 | 41187 ft | 582 kts | 100° |
| 2026-05-03 23:03 | -25.10664 | 140.32754 | 41187 ft | 582 kts | 100° |
| 2026-05-03 23:04 | -25.12411 | 140.41465 | 41184 ft | 581 kts | 100° |
| 2026-05-03 23:04 | -25.14155 | 140.50180 | 41183 ft | 581 kts | 100° |
| 2026-05-03 23:05 | -25.15891 | 140.58890 | 41182 ft | 581 kts | 100° |
| 2026-05-03 23:05 | -25.17623 | 140.67604 | 41184 ft | 581 kts | 100° |
| 2026-05-03 23:06 | -25.19351 | 140.76327 | 41179 ft | 582 kts | 100° |
| 2026-05-03 23:06 | -25.21075 | 140.85057 | 41178 ft | 582 kts | 100° |
| 2026-05-03 23:07 | -25.22794 | 140.93791 | 41176 ft | 582 kts | 100° |
| 2026-05-03 23:07 | -25.24507 | 141.02524 | 41168 ft | 582 kts | 99° |
| 2026-05-03 23:08 | -25.26214 | 141.11248 | 41175 ft | 580 kts | 99° |
| 2026-05-03 23:08 | -25.27912 | 141.19964 | 41173 ft | 580 kts | 99° |
| 2026-05-03 23:09 | -25.29603 | 141.28673 | 41174 ft | 580 kts | 99° |
| 2026-05-03 23:09 | -25.31291 | 141.37389 | 41173 ft | 580 kts | 99° |
| 2026-05-03 23:10 | -25.32975 | 141.46117 | 41170 ft | 580 kts | 99° |
| 2026-05-03 23:10 | -25.34653 | 141.54839 | 41172 ft | 580 kts | 99° |
| 2026-05-03 23:11 | -25.36326 | 141.63571 | 41174 ft | 580 kts | 99° |
| 2026-05-03 23:11 | -25.37994 | 141.72299 | 41173 ft | 580 kts | 99° |
| 2026-05-03 23:12 | -25.39657 | 141.81032 | 41172 ft | 580 kts | 99° |
| 2026-05-03 23:12 | -25.41312 | 141.89755 | 41170 ft | 580 kts | 99° |
| 2026-05-03 23:13 | -25.42955 | 141.98442 | 41171 ft | 580 kts | 99° |
| 2026-05-03 23:13 | -25.44612 | 142.07235 | 41171 ft | 580 kts | 99° |
| 2026-05-03 23:14 | -25.46251 | 142.15960 | 41170 ft | 579 kts | 99° |
| 2026-05-03 23:14 | -25.47884 | 142.24686 | 41170 ft | 579 kts | 99° |
| 2026-05-03 23:15 | -25.49502 | 142.33358 | 41166 ft | 579 kts | 99° |
| 2026-05-03 23:15 | -25.51125 | 142.42092 | 41165 ft | 579 kts | 99° |
| 2026-05-03 23:16 | -25.52744 | 142.50828 | 41164 ft | 579 kts | 99° |
| 2026-05-03 23:16 | -25.54356 | 142.59562 | 41159 ft | 579 kts | 99° |
| 2026-05-03 23:17 | -25.55965 | 142.68308 | 41157 ft | 579 kts | 99° |
| 2026-05-03 23:17 | -25.57568 | 142.77048 | 41152 ft | 579 kts | 99° |
| 2026-05-03 23:18 | -25.59164 | 142.85785 | 41154 ft | 579 kts | 99° |
| 2026-05-03 23:18 | -25.60758 | 142.94539 | 41151 ft | 579 kts | 99° |
| 2026-05-03 23:19 | -25.62343 | 143.03281 | 41147 ft | 579 kts | 99° |
| 2026-05-03 23:19 | -25.63923 | 143.12020 | 41146 ft | 578 kts | 99° |
| 2026-05-03 23:20 | -25.65496 | 143.20754 | 41137 ft | 577 kts | 99° |
| 2026-05-03 23:20 | -25.67061 | 143.29469 | 41140 ft | 576 kts | 99° |
| 2026-05-03 23:21 | -25.68617 | 143.38172 | 41144 ft | 575 kts | 99° |
| 2026-05-03 23:21 | -25.70166 | 143.46868 | 41142 ft | 575 kts | 98° |
| 2026-05-03 23:22 | -25.72481 | 143.59914 | 41139 ft | 574 kts | 98° |
| 2026-05-03 23:22 | -25.74017 | 143.68615 | 41138 ft | 574 kts | 98° |
| 2026-05-03 23:23 | -25.75546 | 143.77302 | 41138 ft | 574 kts | 98° |
| 2026-05-03 23:23 | -25.77070 | 143.85995 | 41140 ft | 574 kts | 98° |
| 2026-05-03 23:24 | -25.78588 | 143.94686 | 41139 ft | 573 kts | 98° |
| 2026-05-03 23:24 | -25.80099 | 144.03366 | 41140 ft | 573 kts | 98° |
| 2026-05-03 23:25 | -25.81606 | 144.12058 | 41140 ft | 573 kts | 98° |
| 2026-05-03 23:25 | -25.83108 | 144.20753 | 41139 ft | 573 kts | 98° |
| 2026-05-03 23:26 | -25.84594 | 144.29385 | 41138 ft | 573 kts | 98° |
| 2026-05-03 23:26 | -25.86084 | 144.38073 | 41137 ft | 573 kts | 98° |
| 2026-05-03 23:27 | -25.87571 | 144.46775 | 41136 ft | 573 kts | 98° |
| 2026-05-03 23:27 | -25.89050 | 144.55469 | 41136 ft | 573 kts | 98° |
| 2026-05-03 23:28 | -25.90526 | 144.64172 | 41138 ft | 574 kts | 98° |
| 2026-05-03 23:28 | -25.91996 | 144.72873 | 41140 ft | 574 kts | 98° |
| 2026-05-03 23:29 | -25.93463 | 144.81587 | 41140 ft | 574 kts | 98° |
| 2026-05-03 23:29 | -25.94925 | 144.90311 | 41137 ft | 574 kts | 98° |
| 2026-05-03 23:30 | -25.96383 | 144.99036 | 41140 ft | 574 kts | 98° |
| 2026-05-03 23:30 | -25.97834 | 145.07758 | 41140 ft | 575 kts | 98° |
| 2026-05-03 23:31 | -25.99282 | 145.16495 | 41140 ft | 575 kts | 98° |
| 2026-05-03 23:31 | -26.00724 | 145.25231 | 41141 ft | 574 kts | 98° |
| 2026-05-03 23:32 | -26.02161 | 145.33968 | 41140 ft | 574 kts | 98° |
| 2026-05-03 23:32 | -26.03351 | 145.41230 | 41140 ft | 575 kts | 98° |
| 2026-05-03 23:33 | -26.04778 | 145.49968 | 41141 ft | 575 kts | 98° |
| 2026-05-03 23:33 | -26.06200 | 145.58712 | 41142 ft | 575 kts | 98° |
| 2026-05-03 23:34 | -26.07846 | 145.68877 | 41142 ft | 575 kts | 98° |
| 2026-05-03 23:34 | -26.09029 | 145.76209 | 41146 ft | 575 kts | 98° |
| 2026-05-03 23:35 | -26.10434 | 145.84957 | 41141 ft | 575 kts | 98° |
| 2026-05-03 23:35 | -26.11835 | 145.93708 | 41144 ft | 575 kts | 98° |
| 2026-05-03 23:36 | -26.13231 | 146.02463 | 41144 ft | 575 kts | 98° |
| 2026-05-03 23:36 | -26.14622 | 146.11223 | 41142 ft | 574 kts | 98° |
| 2026-05-03 23:37 | -26.16006 | 146.19970 | 41146 ft | 574 kts | 98° |
| 2026-05-03 23:37 | -26.17376 | 146.28668 | 41144 ft | 574 kts | 98° |
| 2026-05-03 23:38 | -26.18749 | 146.37423 | 41145 ft | 574 kts | 98° |
| 2026-05-03 23:38 | -26.20118 | 146.46185 | 41145 ft | 574 kts | 98° |
| 2026-05-03 23:39 | -26.21481 | 146.54947 | 41143 ft | 575 kts | 98° |
| 2026-05-03 23:39 | -26.22840 | 146.63715 | 41142 ft | 575 kts | 98° |
| 2026-05-03 23:40 | -26.24193 | 146.72489 | 41142 ft | 575 kts | 98° |
| 2026-05-03 23:40 | -26.25541 | 146.81261 | 41141 ft | 575 kts | 98° |
| 2026-05-03 23:41 | -26.26885 | 146.90043 | 41145 ft | 575 kts | 98° |
| 2026-05-03 23:41 | -26.28223 | 146.98827 | 41145 ft | 575 kts | 98° |
| 2026-05-03 23:42 | -26.29557 | 147.07618 | 41146 ft | 575 kts | 98° |
| 2026-05-03 23:42 | -26.30884 | 147.16398 | 41148 ft | 575 kts | 98° |
| 2026-05-03 23:43 | -26.32206 | 147.25190 | 41142 ft | 575 kts | 98° |
| 2026-05-03 23:43 | -26.33524 | 147.33984 | 41140 ft | 575 kts | 97° |
| 2026-05-03 23:44 | -26.34836 | 147.42781 | 41142 ft | 575 kts | 98° |
| 2026-05-03 23:44 | -26.36140 | 147.51564 | 41148 ft | 575 kts | 97° |
| 2026-05-03 23:45 | -26.37442 | 147.60366 | 41143 ft | 575 kts | 97° |
| 2026-05-03 23:45 | -26.38735 | 147.69150 | 41144 ft | 574 kts | 97° |
| 2026-05-03 23:46 | -26.40024 | 147.77944 | 41146 ft | 574 kts | 97° |
| 2026-05-03 23:46 | -26.41307 | 147.86738 | 41147 ft | 574 kts | 97° |
| 2026-05-03 23:47 | -26.42573 | 147.95452 | 41141 ft | 573 kts | 97° |
| 2026-05-03 23:47 | -26.43844 | 148.04235 | 41149 ft | 573 kts | 97° |
| 2026-05-03 23:48 | -26.45106 | 148.13003 | 41141 ft | 573 kts | 97° |
| 2026-05-03 23:48 | -26.46364 | 148.21777 | 41138 ft | 572 kts | 97° |
| 2026-05-03 23:49 | -26.47615 | 148.30545 | 41152 ft | 572 kts | 97° |
| 2026-05-03 23:49 | -26.48863 | 148.39327 | 41152 ft | 572 kts | 97° |
| 2026-05-03 23:50 | -26.50104 | 148.48097 | 41144 ft | 572 kts | 97° |
| 2026-05-03 23:50 | -26.51339 | 148.56870 | 41153 ft | 571 kts | 97° |
| 2026-05-03 23:51 | -26.52566 | 148.65626 | 41154 ft | 571 kts | 97° |
| 2026-05-03 23:51 | -26.53789 | 148.74390 | 41155 ft | 571 kts | 97° |
| 2026-05-03 23:52 | -26.55106 | 148.83130 | 41159 ft | 571 kts | 101° |
| 2026-05-03 23:52 | -26.56919 | 148.91774 | 41159 ft | 571 kts | 103° |
| 2026-05-03 23:53 | -26.58816 | 149.00388 | 41161 ft | 571 kts | 103° |
| 2026-05-03 23:53 | -26.60636 | 149.09025 | 41162 ft | 571 kts | 102° |
| 2026-05-03 23:54 | -26.62400 | 149.17684 | 41162 ft | 571 kts | 102° |
| 2026-05-03 23:54 | -26.64146 | 149.26340 | 41166 ft | 571 kts | 102° |
| 2026-05-03 23:55 | -26.65889 | 149.35002 | 41164 ft | 571 kts | 102° |
| 2026-05-03 23:55 | -26.67629 | 149.43657 | 41165 ft | 571 kts | 102° |
| 2026-05-03 23:56 | -26.69369 | 149.52337 | 41168 ft | 571 kts | 102° |
| 2026-05-03 23:56 | -26.71100 | 149.61006 | 41168 ft | 571 kts | 102° |
| 2026-05-03 23:57 | -26.72823 | 149.69674 | 41168 ft | 571 kts | 102° |
| 2026-05-03 23:57 | -26.74547 | 149.78356 | 41167 ft | 571 kts | 102° |
| 2026-05-03 23:58 | -26.76263 | 149.87026 | 41171 ft | 571 kts | 102° |
| 2026-05-03 23:58 | -26.77964 | 149.95656 | 41171 ft | 572 kts | 102° |
| 2026-05-03 23:59 | -26.79683 | 150.04410 | 41170 ft | 572 kts | 102° |
| 2026-05-03 23:59 | -26.81373 | 150.13045 | 41175 ft | 572 kts | 102° |
| 2026-05-04 00:00 | -26.83070 | 150.21745 | 41176 ft | 572 kts | 102° |
| 2026-05-04 00:00 | -26.84762 | 150.30450 | 41181 ft | 572 kts | 102° |
| 2026-05-04 00:01 | -26.86448 | 150.39148 | 41177 ft | 572 kts | 102° |
| 2026-05-04 00:01 | -26.88129 | 150.47860 | 41175 ft | 572 kts | 102° |
| 2026-05-04 00:02 | -26.89800 | 150.56551 | 41181 ft | 571 kts | 102° |
| 2026-05-04 00:02 | -26.91467 | 150.65250 | 41181 ft | 571 kts | 102° |
| 2026-05-04 00:03 | -26.93130 | 150.73957 | 41181 ft | 571 kts | 102° |
| 2026-05-04 00:03 | -26.94783 | 150.82643 | 41182 ft | 571 kts | 102° |
| 2026-05-04 00:04 | -26.96434 | 150.91346 | 41181 ft | 571 kts | 102° |
| 2026-05-04 00:04 | -26.98081 | 151.00064 | 41181 ft | 571 kts | 102° |
| 2026-05-04 00:05 | -26.99719 | 151.08764 | 41177 ft | 571 kts | 102° |
| 2026-05-04 00:05 | -27.01352 | 151.17464 | 41178 ft | 570 kts | 102° |
| 2026-05-04 00:06 | -27.02979 | 151.26167 | 41178 ft | 570 kts | 102° |
| 2026-05-04 00:06 | -27.04602 | 151.34876 | 41181 ft | 570 kts | 102° |
| 2026-05-04 00:07 | -27.06207 | 151.43525 | 41179 ft | 570 kts | 102° |
| 2026-05-04 00:07 | -27.07818 | 151.52235 | 41179 ft | 570 kts | 102° |
| 2026-05-04 00:08 | -27.09423 | 151.60939 | 41178 ft | 570 kts | 102° |
| 2026-05-04 00:08 | -27.11021 | 151.69649 | 41184 ft | 570 kts | 102° |
| 2026-05-04 00:09 | -27.12617 | 151.78366 | 41184 ft | 570 kts | 102° |
| 2026-05-04 00:09 | -27.14203 | 151.87064 | 41184 ft | 570 kts | 102° |
| 2026-05-04 00:10 | -27.15787 | 151.95787 | 41187 ft | 570 kts | 102° |
| 2026-05-04 00:10 | -27.17365 | 152.04508 | 41188 ft | 570 kts | 102° |
| 2026-05-04 00:11 | -27.18936 | 152.13221 | 41186 ft | 570 kts | 102° |
| 2026-05-04 00:11 | -27.20505 | 152.21962 | 41188 ft | 570 kts | 102° |
| 2026-05-04 00:12 | -27.22066 | 152.30682 | 41186 ft | 570 kts | 102° |
| 2026-05-04 00:12 | -27.23621 | 152.39401 | 41185 ft | 570 kts | 102° |
| 2026-05-04 00:13 | -27.25168 | 152.48137 | 41182 ft | 570 kts | 102° |
| 2026-05-04 00:13 | -27.26705 | 152.56870 | 41182 ft | 570 kts | 102° |
| 2026-05-04 00:14 | -27.28235 | 152.65588 | 41175 ft | 569 kts | 102° |
| 2026-05-04 00:14 | -27.29763 | 152.74343 | 41177 ft | 569 kts | 102° |
| 2026-05-04 00:15 | -27.31282 | 152.83057 | 41170 ft | 568 kts | 102° |
| 2026-05-04 00:15 | -27.32799 | 152.91790 | 41164 ft | 569 kts | 102° |
| 2026-05-04 00:16 | -27.34311 | 153.00534 | 41159 ft | 569 kts | 102° |
| 2026-05-04 00:16 | -27.35753 | 153.09284 | 41154 ft | 569 kts | 97° |
| 2026-05-04 00:17 | -27.35945 | 153.13724 | 41161 ft | 568 kts | 86° |
| 2026-05-04 00:17 | -27.35472 | 153.18115 | 41150 ft | 564 kts | 75° |
| 2026-05-04 00:17 | -27.33619 | 153.26665 | 41155 ft | 562 kts | 71° |
| 2026-05-04 00:18 | -27.31471 | 153.35115 | 41159 ft | 562 kts | 70° |
| 2026-05-04 00:18 | -27.29308 | 153.43553 | 41155 ft | 562 kts | 70° |
| 2026-05-04 00:19 | -27.27182 | 153.51998 | 41145 ft | 562 kts | 71° |
| 2026-05-04 00:19 | -27.25085 | 153.60406 | 41151 ft | 562 kts | 71° |
| 2026-05-04 00:20 | -27.22976 | 153.68856 | 41146 ft | 562 kts | 71° |
| 2026-05-04 00:20 | -27.20857 | 153.77314 | 41128 ft | 562 kts | 71° |
| 2026-05-04 00:21 | -27.18624 | 153.85713 | 41140 ft | 559 kts | 65° |
| 2026-05-04 00:21 | -27.15648 | 153.93751 | 41146 ft | 557 kts | 62° |
| 2026-05-04 00:22 | -27.13042 | 154.00363 | 41140 ft | 556 kts | 61° |
| 2026-05-04 00:22 | -27.09857 | 154.08336 | 41139 ft | 557 kts | 62° |
| 2026-05-04 00:23 | -27.06716 | 154.16215 | 41134 ft | 557 kts | 62° |
| 2026-05-04 00:23 | -27.03556 | 154.24161 | 41121 ft | 557 kts | 62° |
| 2026-05-04 00:24 | -27.00405 | 154.32095 | 41139 ft | 557 kts | 62° |
| 2026-05-04 00:24 | -26.97227 | 154.40072 | 41134 ft | 557 kts | 62° |
| 2026-05-04 00:25 | -26.94073 | 154.47952 | 41133 ft | 558 kts | 62° |
| 2026-05-04 00:25 | -26.90896 | 154.55880 | 41127 ft | 558 kts | 62° |
| 2026-05-04 00:26 | -26.87717 | 154.63805 | 41130 ft | 558 kts | 62° |
| 2026-05-04 00:26 | -26.84531 | 154.71728 | 41124 ft | 557 kts | 62° |
| 2026-05-04 00:27 | -26.81348 | 154.79633 | 41124 ft | 557 kts | 62° |
| 2026-05-04 00:27 | -26.78159 | 154.87536 | 41124 ft | 557 kts | 62° |
| 2026-05-04 00:28 | -26.74966 | 154.95435 | 41119 ft | 557 kts | 62° |
| 2026-05-04 00:28 | -26.71771 | 155.03321 | 41120 ft | 557 kts | 62° |
| 2026-05-04 00:29 | -26.68568 | 155.11213 | 41119 ft | 557 kts | 62° |
| 2026-05-04 00:29 | -26.65363 | 155.19093 | 41107 ft | 557 kts | 62° |
| 2026-05-04 00:30 | -26.62156 | 155.26965 | 41113 ft | 556 kts | 62° |
| 2026-05-04 00:30 | -26.58945 | 155.34830 | 41113 ft | 556 kts | 62° |
| 2026-05-04 00:31 | -26.55731 | 155.42691 | 41110 ft | 556 kts | 62° |
| 2026-05-04 00:31 | -26.52515 | 155.50540 | 41102 ft | 556 kts | 62° |
| 2026-05-04 00:32 | -26.49291 | 155.58393 | 41102 ft | 556 kts | 62° |
| 2026-05-04 00:32 | -26.46067 | 155.66228 | 41094 ft | 556 kts | 62° |
| 2026-05-04 00:33 | -26.41280 | 155.78015 | 41099 ft | 556 kts | 64° |
| 2026-05-04 00:34 | -26.38327 | 155.85998 | 41098 ft | 557 kts | 65° |
| 2026-05-04 00:34 | -26.35406 | 155.93979 | 41101 ft | 556 kts | 65° |
| 2026-05-04 00:35 | -26.32444 | 156.01952 | 41094 ft | 557 kts | 65° |
| 2026-05-04 00:35 | -26.29456 | 156.09916 | 41088 ft | 557 kts | 65° |
| 2026-05-04 00:36 | -26.26458 | 156.17872 | 41085 ft | 556 kts | 65° |
| 2026-05-04 00:36 | -26.23482 | 156.25759 | 41086 ft | 556 kts | 65° |
| 2026-05-04 00:37 | -26.20465 | 156.33742 | 41083 ft | 556 kts | 65° |
| 2026-05-04 00:37 | -26.17483 | 156.41618 | 41080 ft | 556 kts | 65° |
| 2026-05-04 00:38 | -26.14482 | 156.49530 | 41078 ft | 556 kts | 65° |
| 2026-05-04 00:38 | -26.11469 | 156.57457 | 41073 ft | 556 kts | 65° |
| 2026-05-04 00:39 | -26.08454 | 156.65373 | 41066 ft | 555 kts | 65° |
| 2026-05-04 00:39 | -26.05440 | 156.73273 | 41069 ft | 554 kts | 65° |
| 2026-05-04 00:40 | -26.02426 | 156.81156 | 41068 ft | 554 kts | 65° |
| 2026-05-04 00:40 | -25.99387 | 156.89090 | 41067 ft | 554 kts | 65° |
| 2026-05-04 00:41 | -25.96382 | 156.96917 | 41065 ft | 554 kts | 65° |
| 2026-05-04 00:41 | -25.93351 | 157.04800 | 41068 ft | 555 kts | 65° |
| 2026-05-04 00:42 | -25.90317 | 157.12675 | 41061 ft | 555 kts | 65° |
| 2026-05-04 00:42 | -25.87276 | 157.20555 | 41065 ft | 555 kts | 65° |
| 2026-05-04 00:43 | -25.84235 | 157.28417 | 41058 ft | 555 kts | 65° |
| 2026-05-04 00:43 | -25.81184 | 157.36289 | 41055 ft | 555 kts | 65° |
| 2026-05-04 00:44 | -25.78128 | 157.44162 | 41056 ft | 555 kts | 65° |
| 2026-05-04 00:44 | -25.75071 | 157.52020 | 41050 ft | 555 kts | 65° |
| 2026-05-04 00:45 | -25.72006 | 157.59886 | 41051 ft | 555 kts | 65° |
| 2026-05-04 00:45 | -25.68938 | 157.67744 | 41050 ft | 555 kts | 65° |
| 2026-05-04 00:46 | -25.65870 | 157.75586 | 41044 ft | 554 kts | 65° |
| 2026-05-04 00:46 | -25.62798 | 157.83425 | 41046 ft | 554 kts | 65° |
| 2026-05-04 00:47 | -25.59725 | 157.91251 | 41040 ft | 554 kts | 65° |
| 2026-05-04 00:47 | -25.56646 | 157.99077 | 41041 ft | 554 kts | 65° |
| 2026-05-04 00:48 | -25.53564 | 158.06898 | 41038 ft | 554 kts | 65° |
| 2026-05-04 00:48 | -25.50477 | 158.14716 | 41034 ft | 554 kts | 65° |
| 2026-05-04 00:49 | -25.47386 | 158.22530 | 41036 ft | 554 kts | 65° |
| 2026-05-04 00:49 | -25.44295 | 158.30329 | 41041 ft | 553 kts | 65° |
| 2026-05-04 00:50 | -25.41202 | 158.38119 | 41032 ft | 553 kts | 65° |
| 2026-05-04 00:50 | -25.38102 | 158.45912 | 41037 ft | 553 kts | 65° |
| 2026-05-04 00:51 | -25.35000 | 158.53697 | 41032 ft | 553 kts | 65° |
| 2026-05-04 00:51 | -25.31897 | 158.61470 | 41031 ft | 553 kts | 65° |
| 2026-05-04 00:52 | -25.28804 | 158.69203 | 41032 ft | 553 kts | 65° |
| 2026-05-04 00:52 | -25.25690 | 158.76972 | 41024 ft | 553 kts | 65° |
| 2026-05-04 00:53 | -25.22581 | 158.84719 | 41026 ft | 552 kts | 65° |
| 2026-05-04 00:53 | -25.19466 | 158.92464 | 41026 ft | 551 kts | 65° |
| 2026-05-04 00:54 | -25.16351 | 159.00194 | 41021 ft | 551 kts | 65° |
| 2026-05-04 00:54 | -25.13229 | 159.07931 | 41023 ft | 552 kts | 65° |
| 2026-05-04 00:55 | -25.10104 | 159.15661 | 41021 ft | 552 kts | 65° |
| 2026-05-04 00:55 | -25.06974 | 159.23386 | 41021 ft | 552 kts | 65° |
| 2026-05-04 00:56 | -25.03842 | 159.31106 | 41018 ft | 551 kts | 65° |
| 2026-05-04 00:56 | -25.00712 | 159.38805 | 41020 ft | 550 kts | 65° |
| 2026-05-04 00:57 | -24.97578 | 159.46502 | 41022 ft | 550 kts | 65° |
| 2026-05-04 00:57 | -24.94439 | 159.54195 | 41027 ft | 550 kts | 65° |
| 2026-05-04 00:58 | -24.91299 | 159.61879 | 41017 ft | 551 kts | 65° |
| 2026-05-04 00:58 | -24.88146 | 159.69580 | 41021 ft | 551 kts | 65° |
| 2026-05-04 00:59 | -24.85014 | 159.77218 | 41021 ft | 551 kts | 65° |
| 2026-05-04 00:59 | -24.81856 | 159.84904 | 41017 ft | 550 kts | 65° |
| 2026-05-04 01:00 | -24.78702 | 159.92568 | 41016 ft | 550 kts | 65° |
| 2026-05-04 01:00 | -24.75539 | 160.00240 | 41018 ft | 551 kts | 65° |
| 2026-05-04 01:01 | -24.72371 | 160.07913 | 41014 ft | 551 kts | 65° |
| 2026-05-04 01:01 | -24.69199 | 160.15581 | 41012 ft | 551 kts | 65° |
| 2026-05-04 01:02 | -24.66026 | 160.23234 | 41014 ft | 551 kts | 66° |
| 2026-05-04 01:02 | -24.62845 | 160.30897 | 41012 ft | 551 kts | 65° |
| 2026-05-04 01:03 | -24.59662 | 160.38552 | 41011 ft | 550 kts | 66° |
| 2026-05-04 01:03 | -24.56478 | 160.46187 | 41010 ft | 550 kts | 65° |
| 2026-05-04 01:04 | -24.53284 | 160.53812 | 41013 ft | 549 kts | 65° |
| 2026-05-04 01:04 | -24.50084 | 160.61439 | 41012 ft | 550 kts | 66° |
| 2026-05-04 01:05 | -24.46881 | 160.69067 | 41012 ft | 550 kts | 66° |
| 2026-05-04 01:05 | -24.43676 | 160.76687 | 41012 ft | 550 kts | 65° |
| 2026-05-04 01:06 | -24.40462 | 160.84316 | 41012 ft | 550 kts | 65° |
| 2026-05-04 01:06 | -24.37245 | 160.91937 | 41005 ft | 550 kts | 66° |
| 2026-05-04 01:07 | -24.34818 | 160.97679 | 41004 ft | 550 kts | 66° |
| 2026-05-04 01:07 | -24.31599 | 161.05284 | 41007 ft | 550 kts | 66° |
| 2026-05-04 01:08 | -24.28377 | 161.12882 | 41004 ft | 550 kts | 66° |
| 2026-05-04 01:08 | -24.24629 | 161.21707 | 41004 ft | 550 kts | 66° |
| 2026-05-04 01:09 | -24.21922 | 161.28066 | 41005 ft | 550 kts | 66° |
| 2026-05-04 01:09 | -24.18689 | 161.35653 | 41004 ft | 550 kts | 66° |
| 2026-05-04 01:10 | -24.15464 | 161.43209 | 40997 ft | 549 kts | 66° |
| 2026-05-04 01:10 | -24.12247 | 161.50732 | 41004 ft | 549 kts | 66° |
| 2026-05-04 01:11 | -24.09005 | 161.58303 | 41011 ft | 549 kts | 66° |
| 2026-05-04 01:11 | -24.05767 | 161.65851 | 41001 ft | 549 kts | 66° |
| 2026-05-04 01:12 | -24.02514 | 161.73421 | 40999 ft | 549 kts | 66° |
| 2026-05-04 01:12 | -23.99272 | 161.80955 | 41002 ft | 549 kts | 66° |
| 2026-05-04 01:13 | -23.96019 | 161.88499 | 41002 ft | 549 kts | 66° |
| 2026-05-04 01:13 | -23.92768 | 161.96028 | 41005 ft | 549 kts | 66° |
| 2026-05-04 01:14 | -23.89490 | 162.03606 | 41001 ft | 548 kts | 66° |
| 2026-05-04 01:14 | -23.86236 | 162.11117 | 41001 ft | 547 kts | 66° |
| 2026-05-04 01:15 | -23.82980 | 162.18622 | 41004 ft | 547 kts | 66° |
| 2026-05-04 01:15 | -23.79719 | 162.26124 | 41019 ft | 547 kts | 66° |
| 2026-05-04 01:16 | -23.76440 | 162.33656 | 41001 ft | 548 kts | 66° |
| 2026-05-04 01:16 | -23.73166 | 162.41166 | 41001 ft | 548 kts | 66° |
| 2026-05-04 01:17 | -23.69899 | 162.48646 | 41002 ft | 548 kts | 66° |
| 2026-05-04 01:17 | -23.66612 | 162.56160 | 40999 ft | 548 kts | 66° |
| 2026-05-04 01:18 | -23.63319 | 162.63676 | 41003 ft | 548 kts | 66° |
| 2026-05-04 01:18 | -23.60029 | 162.71172 | 41002 ft | 548 kts | 66° |
| 2026-05-04 01:19 | -23.56733 | 162.78672 | 41001 ft | 548 kts | 66° |
| 2026-05-04 01:19 | -23.53435 | 162.86163 | 40998 ft | 548 kts | 66° |
| 2026-05-04 01:20 | -23.50136 | 162.93644 | 40997 ft | 548 kts | 66° |
| 2026-05-04 01:20 | -23.46835 | 163.01126 | 41000 ft | 548 kts | 66° |
| 2026-05-04 01:21 | -23.43868 | 163.08748 | 40985 ft | 546 kts | 71° |
| 2026-05-04 01:21 | -23.41113 | 163.16460 | 40996 ft | 546 kts | 71° |
| 2026-05-04 01:22 | -23.38327 | 163.24141 | 40998 ft | 546 kts | 70° |
| 2026-05-04 01:22 | -23.35486 | 163.31795 | 41005 ft | 546 kts | 70° |
| 2026-05-04 01:23 | -23.32638 | 163.39395 | 40997 ft | 546 kts | 70° |
| 2026-05-04 01:23 | -23.29769 | 163.47034 | 40994 ft | 546 kts | 70° |
| 2026-05-04 01:24 | -23.26892 | 163.54687 | 40995 ft | 546 kts | 70° |
| 2026-05-04 01:24 | -23.24016 | 163.62327 | 40994 ft | 546 kts | 70° |
| 2026-05-04 01:25 | -23.21144 | 163.69946 | 40997 ft | 546 kts | 70° |
| 2026-05-04 01:25 | -23.18258 | 163.77589 | 40999 ft | 545 kts | 70° |
| 2026-05-04 01:26 | -23.15381 | 163.85195 | 40989 ft | 545 kts | 70° |
| 2026-05-04 01:26 | -23.12486 | 163.92833 | 40990 ft | 545 kts | 70° |
| 2026-05-04 01:27 | -23.09597 | 164.00446 | 40999 ft | 545 kts | 70° |
| 2026-05-04 01:27 | -23.06702 | 164.08059 | 40996 ft | 545 kts | 70° |
| 2026-05-04 01:28 | -23.03803 | 164.15670 | 40992 ft | 545 kts | 70° |
| 2026-05-04 01:28 | -23.00904 | 164.23269 | 40993 ft | 545 kts | 70° |
| 2026-05-04 01:29 | -22.98000 | 164.30869 | 40993 ft | 545 kts | 70° |
| 2026-05-04 01:29 | -22.95093 | 164.38463 | 40990 ft | 545 kts | 70° |
| 2026-05-04 01:30 | -22.92184 | 164.46050 | 40993 ft | 545 kts | 70° |
| 2026-05-04 01:30 | -22.89268 | 164.53642 | 40993 ft | 545 kts | 70° |
| 2026-05-04 01:31 | -22.86350 | 164.61225 | 40994 ft | 545 kts | 70° |
| 2026-05-04 01:31 | -22.83432 | 164.68798 | 40990 ft | 545 kts | 70° |
| 2026-05-04 01:32 | -22.80509 | 164.76373 | 40990 ft | 545 kts | 70° |
| 2026-05-04 01:32 | -22.77580 | 164.83947 | 40990 ft | 545 kts | 70° |
| 2026-05-04 01:33 | -22.74648 | 164.91519 | 40988 ft | 545 kts | 70° |
| 2026-05-04 01:33 | -22.71729 | 164.99045 | 40985 ft | 545 kts | 70° |
| 2026-05-04 01:34 | -22.68790 | 165.06608 | 40986 ft | 545 kts | 70° |
| 2026-05-04 01:34 | -22.65851 | 165.14160 | 40985 ft | 545 kts | 70° |
| 2026-05-04 01:35 | -22.62906 | 165.21715 | 40988 ft | 545 kts | 70° |
| 2026-05-04 01:35 | -22.59958 | 165.29267 | 40989 ft | 545 kts | 70° |
| 2026-05-04 01:36 | -22.57006 | 165.36815 | 40987 ft | 545 kts | 70° |
| 2026-05-04 01:36 | -22.54052 | 165.44357 | 40985 ft | 545 kts | 70° |
| 2026-05-04 01:37 | -22.51091 | 165.51904 | 40982 ft | 545 kts | 70° |
| 2026-05-04 01:37 | -22.48127 | 165.59444 | 40982 ft | 545 kts | 70° |
| 2026-05-04 01:38 | -22.45161 | 165.66981 | 40962 ft | 545 kts | 70° |
| 2026-05-04 01:38 | -22.42194 | 165.74505 | 40971 ft | 544 kts | 70° |
| 2026-05-04 01:39 | -22.39226 | 165.82019 | 40974 ft | 544 kts | 70° |
| 2026-05-04 01:39 | -22.36251 | 165.89543 | 40971 ft | 544 kts | 70° |
| 2026-05-04 01:40 | -22.33293 | 165.97012 | 40961 ft | 544 kts | 70° |
| 2026-05-04 01:40 | -22.30290 | 166.04581 | 40958 ft | 545 kts | 70° |
| 2026-05-04 01:41 | -22.27324 | 166.12043 | 40950 ft | 545 kts | 70° |
| 2026-05-04 01:41 | -22.24333 | 166.19558 | 40945 ft | 545 kts | 70° |
| 2026-05-04 01:42 | -22.21338 | 166.27071 | 40944 ft | 545 kts | 70° |
| 2026-05-04 01:42 | -22.18342 | 166.34573 | 40942 ft | 545 kts | 70° |
| 2026-05-04 01:43 | -22.15342 | 166.42076 | 40949 ft | 544 kts | 69° |
| 2026-05-04 01:43 | -22.12338 | 166.49577 | 40952 ft | 544 kts | 69° |
| 2026-05-04 01:44 | -22.09333 | 166.57069 | 40963 ft | 544 kts | 70° |
| 2026-05-04 01:44 | -22.06325 | 166.64558 | 40967 ft | 544 kts | 70° |
| 2026-05-04 01:45 | -22.03311 | 166.72039 | 40970 ft | 544 kts | 69° |
| 2026-05-04 01:45 | -21.98791 | 166.83251 | 40973 ft | 544 kts | 70° |
| 2026-05-04 01:46 | -21.95771 | 166.90727 | 40964 ft | 544 kts | 70° |
| 2026-05-04 01:46 | -21.92743 | 166.98211 | 40967 ft | 545 kts | 70° |
| 2026-05-04 01:47 | -21.89714 | 167.05684 | 40974 ft | 544 kts | 70° |
| 2026-05-04 01:47 | -21.86684 | 167.13151 | 40974 ft | 544 kts | 70° |
| 2026-05-04 01:48 | -21.83652 | 167.20611 | 40974 ft | 544 kts | 70° |
| 2026-05-04 01:48 | -21.80614 | 167.28071 | 40977 ft | 544 kts | 70° |
| 2026-05-04 01:49 | -21.77574 | 167.35527 | 40977 ft | 544 kts | 70° |
| 2026-05-04 01:49 | -21.74531 | 167.42980 | 40974 ft | 544 kts | 70° |
| 2026-05-04 01:50 | -21.71502 | 167.50385 | 40974 ft | 544 kts | 70° |
| 2026-05-04 01:50 | -21.68452 | 167.57833 | 40973 ft | 544 kts | 70° |
| 2026-05-04 01:51 | -21.65401 | 167.65271 | 40954 ft | 544 kts | 70° |
| 2026-05-04 01:51 | -21.62346 | 167.72707 | 40975 ft | 544 kts | 70° |
| 2026-05-04 01:52 | -21.59288 | 167.80139 | 40974 ft | 544 kts | 70° |
| 2026-05-04 01:52 | -21.56225 | 167.87573 | 40974 ft | 544 kts | 70° |
| 2026-05-04 01:53 | -21.53163 | 167.94994 | 40976 ft | 544 kts | 70° |
| 2026-05-04 01:53 | -21.50095 | 168.02417 | 40966 ft | 544 kts | 70° |
| 2026-05-04 01:54 | -21.47020 | 168.09846 | 40967 ft | 544 kts | 70° |
| 2026-05-04 01:54 | -21.43942 | 168.17270 | 40961 ft | 544 kts | 70° |
| 2026-05-04 01:55 | -21.40863 | 168.24688 | 40962 ft | 544 kts | 70° |
| 2026-05-04 01:55 | -21.37777 | 168.32110 | 40946 ft | 544 kts | 69° |
| 2026-05-04 01:56 | -21.34693 | 168.39517 | 40966 ft | 544 kts | 69° |
| 2026-05-04 01:56 | -21.32124 | 168.45677 | 40961 ft | 544 kts | 69° |
| 2026-05-04 01:57 | -21.29029 | 168.53092 | 40963 ft | 544 kts | 69° |
| 2026-05-04 01:57 | -21.25430 | 168.61700 | 40966 ft | 544 kts | 69° |
| 2026-05-04 01:58 | -21.22833 | 168.67900 | 40968 ft | 544 kts | 69° |
| 2026-05-04 01:58 | -21.19726 | 168.75309 | 40965 ft | 545 kts | 69° |
| 2026-05-04 01:59 | -21.16614 | 168.82720 | 40962 ft | 546 kts | 69° |
| 2026-05-04 01:59 | -21.13496 | 168.90134 | 40953 ft | 546 kts | 69° |
| 2026-05-04 02:00 | -21.10375 | 168.97543 | 40963 ft | 546 kts | 69° |
| 2026-05-04 02:00 | -21.07248 | 169.04957 | 40959 ft | 546 kts | 69° |
| 2026-05-04 02:01 | -21.04141 | 169.12312 | 40959 ft | 546 kts | 69° |
| 2026-05-04 02:01 | -21.01008 | 169.19720 | 40961 ft | 546 kts | 69° |
| 2026-05-04 02:02 | -20.97875 | 169.27116 | 40959 ft | 546 kts | 69° |
| 2026-05-04 02:02 | -20.94736 | 169.34516 | 40955 ft | 546 kts | 69° |
| 2026-05-04 02:03 | -20.91594 | 169.41912 | 40960 ft | 546 kts | 69° |
| 2026-05-04 02:03 | -20.88449 | 169.49304 | 40959 ft | 547 kts | 69° |
| 2026-05-04 02:04 | -20.85294 | 169.56710 | 40960 ft | 548 kts | 69° |
| 2026-05-04 02:04 | -20.82133 | 169.64118 | 40933 ft | 548 kts | 69° |
| 2026-05-04 02:05 | -20.78970 | 169.71522 | 40952 ft | 547 kts | 69° |
| 2026-05-04 02:05 | -20.75803 | 169.78922 | 40953 ft | 547 kts | 69° |
| 2026-05-04 02:06 | -20.72632 | 169.86323 | 40953 ft | 548 kts | 69° |
| 2026-05-04 02:06 | -20.69455 | 169.93727 | 40952 ft | 549 kts | 69° |
| 2026-05-04 02:07 | -20.66273 | 170.01132 | 40950 ft | 549 kts | 69° |
| 2026-05-04 02:07 | -20.63086 | 170.08537 | 40947 ft | 549 kts | 69° |
| 2026-05-04 02:08 | -20.59899 | 170.15935 | 40949 ft | 549 kts | 69° |
| 2026-05-04 02:08 | -20.56708 | 170.23329 | 40946 ft | 548 kts | 68° |
| 2026-05-04 02:09 | -20.53514 | 170.30720 | 40946 ft | 549 kts | 68° |
| 2026-05-04 02:09 | -20.50316 | 170.38111 | 40948 ft | 548 kts | 68° |
| 2026-05-04 02:10 | -20.47118 | 170.45492 | 40943 ft | 548 kts | 68° |
| 2026-05-04 02:10 | -20.43942 | 170.52879 | 40945 ft | 548 kts | 70° |
| 2026-05-04 02:11 | -20.41089 | 170.60332 | 40943 ft | 546 kts | 72° |
| 2026-05-04 02:11 | -20.38313 | 170.67861 | 40942 ft | 545 kts | 71° |
| 2026-05-04 02:12 | -20.35494 | 170.75370 | 40947 ft | 546 kts | 71° |
| 2026-05-04 02:12 | -20.32640 | 170.82857 | 40942 ft | 546 kts | 71° |
| 2026-05-04 02:13 | -20.29769 | 170.90349 | 40944 ft | 546 kts | 71° |
| 2026-05-04 02:13 | -20.26901 | 170.97822 | 40945 ft | 544 kts | 71° |
| 2026-05-04 02:14 | -20.24037 | 171.05279 | 40917 ft | 544 kts | 70° |
| 2026-05-04 02:14 | -20.21170 | 171.12736 | 40939 ft | 545 kts | 70° |
| 2026-05-04 02:15 | -20.18294 | 171.20203 | 40942 ft | 545 kts | 70° |
| 2026-05-04 02:15 | -20.15417 | 171.27663 | 40937 ft | 545 kts | 70° |
| 2026-05-04 02:16 | -20.12537 | 171.35120 | 40942 ft | 544 kts | 70° |
| 2026-05-04 02:16 | -20.09660 | 171.42557 | 40941 ft | 543 kts | 70° |
| 2026-05-04 02:17 | -20.06785 | 171.49980 | 40940 ft | 543 kts | 70° |
| 2026-05-04 02:17 | -20.03901 | 171.57417 | 40944 ft | 543 kts | 70° |
| 2026-05-04 02:18 | -20.01014 | 171.64849 | 40941 ft | 543 kts | 70° |
| 2026-05-04 02:18 | -19.98128 | 171.72270 | 40942 ft | 543 kts | 69° |
| 2026-05-04 02:19 | -19.95241 | 171.79678 | 40938 ft | 542 kts | 69° |
| 2026-05-04 02:19 | -19.92351 | 171.87087 | 40936 ft | 543 kts | 69° |
| 2026-05-04 02:20 | -19.89454 | 171.94501 | 40940 ft | 544 kts | 69° |
| 2026-05-04 02:20 | -19.86549 | 172.01925 | 40937 ft | 544 kts | 69° |
| 2026-05-04 02:21 | -19.83643 | 172.09336 | 40940 ft | 543 kts | 68° |
| 2026-05-04 02:21 | -19.80736 | 172.16747 | 40939 ft | 543 kts | 68° |
| 2026-05-04 02:22 | -19.77829 | 172.24148 | 40938 ft | 543 kts | 68° |
| 2026-05-04 02:22 | -19.74918 | 172.31548 | 40938 ft | 543 kts | 68° |
| 2026-05-04 02:23 | -19.72024 | 172.38891 | 40938 ft | 543 kts | 68° |
| 2026-05-04 02:23 | -19.69094 | 172.46320 | 40941 ft | 542 kts | 67° |
| 2026-05-04 02:24 | -19.66203 | 172.53638 | 40937 ft | 541 kts | 67° |
| 2026-05-04 02:24 | -19.63295 | 172.60984 | 40923 ft | 541 kts | 67° |
| 2026-05-04 02:25 | -19.60376 | 172.68351 | 40935 ft | 542 kts | 67° |
| 2026-05-04 02:25 | -19.57456 | 172.75711 | 40936 ft | 542 kts | 67° |
| 2026-05-04 02:26 | -19.54531 | 172.83071 | 40941 ft | 542 kts | 67° |
| 2026-05-04 02:26 | -19.51602 | 172.90433 | 40933 ft | 542 kts | 67° |
| 2026-05-04 02:27 | -19.48672 | 172.97788 | 40936 ft | 542 kts | 67° |
| 2026-05-04 02:27 | -19.45740 | 173.05137 | 40940 ft | 542 kts | 67° |
| 2026-05-04 02:28 | -19.42802 | 173.12488 | 40935 ft | 542 kts | 67° |
| 2026-05-04 02:28 | -19.39864 | 173.19835 | 40934 ft | 541 kts | 66° |
| 2026-05-04 02:29 | -19.36933 | 173.27152 | 40937 ft | 539 kts | 66° |
| 2026-05-04 02:29 | -19.34005 | 173.34448 | 40940 ft | 539 kts | 66° |
| 2026-05-04 02:30 | -19.31067 | 173.41762 | 40936 ft | 540 kts | 66° |
| 2026-05-04 02:30 | -19.28121 | 173.49086 | 40940 ft | 541 kts | 66° |
| 2026-05-04 02:31 | -19.25172 | 173.56409 | 40927 ft | 540 kts | 65° |
| 2026-05-04 02:31 | -19.22228 | 173.63711 | 40931 ft | 539 kts | 65° |
| 2026-05-04 02:32 | -19.19285 | 173.70996 | 40932 ft | 538 kts | 65° |
| 2026-05-04 02:32 | -19.16358 | 173.78232 | 40930 ft | 538 kts | 65° |
| 2026-05-04 02:33 | -19.13392 | 173.85556 | 40924 ft | 538 kts | 65° |
| 2026-05-04 02:33 | -19.10442 | 173.92832 | 40930 ft | 538 kts | 65° |
| 2026-05-04 02:34 | -19.07496 | 174.00087 | 40929 ft | 537 kts | 65° |
| 2026-05-04 02:34 | -19.04568 | 174.07290 | 40933 ft | 536 kts | 65° |
| 2026-05-04 02:35 | -19.01624 | 174.14521 | 40924 ft | 537 kts | 64° |
| 2026-05-04 02:35 | -18.98662 | 174.21786 | 40928 ft | 539 kts | 64° |
| 2026-05-04 02:36 | -18.95697 | 174.29049 | 40951 ft | 539 kts | 64° |
| 2026-05-04 02:36 | -18.92730 | 174.36313 | 40937 ft | 538 kts | 64° |
| 2026-05-04 02:37 | -18.89766 | 174.43556 | 40934 ft | 537 kts | 64° |
| 2026-05-04 02:37 | -18.86799 | 174.50794 | 40937 ft | 537 kts | 64° |
| 2026-05-04 02:38 | -18.83832 | 174.58025 | 40927 ft | 537 kts | 64° |
| 2026-05-04 02:38 | -18.80859 | 174.65262 | 40921 ft | 537 kts | 64° |
| 2026-05-04 02:39 | -18.77886 | 174.72487 | 40929 ft | 537 kts | 63° |
| 2026-05-04 02:39 | -18.74909 | 174.79716 | 40928 ft | 537 kts | 63° |
| 2026-05-04 02:40 | -18.71924 | 174.86955 | 40922 ft | 538 kts | 63° |
| 2026-05-04 02:40 | -18.68958 | 174.94137 | 40859 ft | 538 kts | 63° |
| 2026-05-04 02:41 | -18.67476 | 174.97727 | 40452 ft | 533 kts | 63° |
| 2026-05-04 02:41 | -18.65990 | 175.01323 | 39724 ft | 535 kts | 63° |
| 2026-05-04 02:41 | -18.64505 | 175.04914 | 39061 ft | 535 kts | 63° |
| 2026-05-04 02:41 | -18.63016 | 175.08515 | 38353 ft | 536 kts | 62° |
| 2026-05-04 02:42 | -18.61524 | 175.12115 | 37546 ft | 536 kts | 63° |
| 2026-05-04 02:42 | -18.60030 | 175.15715 | 36756 ft | 536 kts | 63° |
| 2026-05-04 02:42 | -18.58540 | 175.19307 | 36008 ft | 535 kts | 63° |
| 2026-05-04 02:42 | -18.57049 | 175.22898 | 35309 ft | 534 kts | 63° |
| 2026-05-04 02:43 | -18.55566 | 175.26472 | 34745 ft | 529 kts | 63° |
| 2026-05-04 02:43 | -18.54100 | 175.30006 | 34203 ft | 524 kts | 63° |
| 2026-05-04 02:43 | -18.52644 | 175.33511 | 33648 ft | 520 kts | 63° |
| 2026-05-04 02:43 | -18.51205 | 175.36973 | 33093 ft | 514 kts | 63° |
| 2026-05-04 02:44 | -18.49776 | 175.40410 | 32580 ft | 509 kts | 63° |
| 2026-05-04 02:44 | -18.48364 | 175.43804 | 32075 ft | 504 kts | 63° |
| 2026-05-04 02:44 | -18.46959 | 175.47173 | 31568 ft | 499 kts | 63° |
| 2026-05-04 02:44 | -18.45574 | 175.50497 | 31059 ft | 495 kts | 63° |
| 2026-05-04 02:45 | -18.44193 | 175.53807 | 30573 ft | 491 kts | 62° |
| 2026-05-04 02:45 | -18.43287 | 175.55978 | 30247 ft | 488 kts | 62° |
| 2026-05-04 02:45 | -18.41927 | 175.59235 | 29707 ft | 484 kts | 62° |
| 2026-05-04 02:45 | -18.40576 | 175.62468 | 29188 ft | 479 kts | 62° |
| 2026-05-04 02:46 | -18.39242 | 175.65662 | 28708 ft | 474 kts | 62° |
| 2026-05-04 02:46 | -18.37920 | 175.68824 | 28206 ft | 469 kts | 63° |
| 2026-05-04 02:46 | -18.36613 | 175.71945 | 27741 ft | 464 kts | 63° |
| 2026-05-04 02:46 | -18.35319 | 175.75036 | 27258 ft | 459 kts | 63° |
| 2026-05-04 02:47 | -18.34037 | 175.78096 | 26785 ft | 455 kts | 63° |
| 2026-05-04 02:47 | -18.32756 | 175.81154 | 26082 ft | 457 kts | 62° |
| 2026-05-04 02:47 | -18.31477 | 175.84214 | 25473 ft | 457 kts | 62° |
| 2026-05-04 02:47 | -18.30200 | 175.87259 | 24971 ft | 454 kts | 62° |
| 2026-05-04 02:48 | -18.28925 | 175.90294 | 24451 ft | 451 kts | 62° |
| 2026-05-04 02:48 | -18.27664 | 175.93297 | 23948 ft | 448 kts | 62° |
| 2026-05-04 02:48 | -18.26405 | 175.96293 | 23422 ft | 445 kts | 62° |
| 2026-05-04 02:48 | -18.25159 | 175.99257 | 22851 ft | 442 kts | 62° |
| 2026-05-04 02:49 | -18.23925 | 176.02193 | 22336 ft | 436 kts | 62° |
| 2026-05-04 02:49 | -18.22706 | 176.05092 | 21832 ft | 431 kts | 62° |
| 2026-05-04 02:49 | -18.21499 | 176.07964 | 21337 ft | 426 kts | 62° |
| 2026-05-04 02:49 | -18.20304 | 176.10803 | 20839 ft | 422 kts | 62° |
| 2026-05-04 02:50 | -18.19122 | 176.13608 | 20345 ft | 417 kts | 62° |
| 2026-05-04 02:50 | -18.17952 | 176.16385 | 19861 ft | 413 kts | 62° |
| 2026-05-04 02:50 | -18.16807 | 176.19100 | 19393 ft | 409 kts | 63° |
| 2026-05-04 02:50 | -18.15658 | 176.21824 | 18918 ft | 406 kts | 63° |
| 2026-05-04 02:51 | -18.14519 | 176.24522 | 18436 ft | 402 kts | 63° |
| 2026-05-04 02:51 | -18.13390 | 176.27195 | 17936 ft | 398 kts | 63° |
| 2026-05-04 02:51 | -18.12274 | 176.29837 | 17417 ft | 393 kts | 63° |
| 2026-05-04 02:51 | -18.11172 | 176.32446 | 16961 ft | 388 kts | 63° |
| 2026-05-04 02:52 | -18.10084 | 176.35021 | 16497 ft | 383 kts | 63° |
| 2026-05-04 02:52 | -18.09011 | 176.37557 | 16034 ft | 378 kts | 63° |
| 2026-05-04 02:52 | -18.07949 | 176.40068 | 15595 ft | 373 kts | 64° |
| 2026-05-04 02:52 | -18.06902 | 176.42540 | 15150 ft | 369 kts | 63° |
| 2026-05-04 02:53 | -18.05867 | 176.44984 | 14707 ft | 364 kts | 64° |
| 2026-05-04 02:53 | -18.04843 | 176.47398 | 14283 ft | 360 kts | 64° |
| 2026-05-04 02:53 | -18.03828 | 176.49793 | 13850 ft | 356 kts | 64° |
| 2026-05-04 02:53 | -18.02824 | 176.52159 | 13384 ft | 352 kts | 63° |
| 2026-05-04 02:54 | -18.01834 | 176.54488 | 12947 ft | 347 kts | 64° |
| 2026-05-04 02:54 | -18.00862 | 176.56781 | 12565 ft | 341 kts | 64° |
| 2026-05-04 02:54 | -17.99908 | 176.59036 | 12200 ft | 334 kts | 65° |
| 2026-05-04 02:54 | -17.98973 | 176.61244 | 11745 ft | 332 kts | 64° |
| 2026-05-04 02:55 | -17.97117 | 176.65618 | 11075 ft | 321 kts | 64° |
| 2026-05-04 02:55 | -17.96230 | 176.67712 | 10943 ft | 307 kts | 64° |
| 2026-05-04 02:55 | -17.95381 | 176.69715 | 10816 ft | 294 kts | 64° |
| 2026-05-04 02:56 | -17.94561 | 176.71641 | 10630 ft | 285 kts | 64° |
| 2026-05-04 02:56 | -17.93759 | 176.73520 | 10340 ft | 280 kts | 64° |
| 2026-05-04 02:56 | -17.93021 | 176.75407 | 10071 ft | 279 kts | 69° |
| 2026-05-04 02:56 | -17.92535 | 176.77382 | 9804 ft | 286 kts | 79° |
| 2026-05-04 02:57 | -17.92319 | 176.79507 | 9708 ft | 296 kts | 85° |
| 2026-05-04 02:57 | -17.92203 | 176.81653 | 9319 ft | 294 kts | 85° |
| 2026-05-04 02:57 | -17.92108 | 176.83800 | 8860 ft | 293 kts | 86° |
| 2026-05-04 02:57 | -17.92019 | 176.85926 | 8523 ft | 290 kts | 86° |
| 2026-05-04 02:58 | -17.91931 | 176.88033 | 8225 ft | 288 kts | 86° |
| 2026-05-04 02:58 | -17.91842 | 176.90099 | 7931 ft | 286 kts | 86° |
| 2026-05-04 02:58 | -17.91752 | 176.92178 | 7634 ft | 284 kts | 86° |
| 2026-05-04 02:58 | -17.91663 | 176.94262 | 7336 ft | 281 kts | 86° |
| 2026-05-04 02:59 | -17.91575 | 176.96282 | 7052 ft | 280 kts | 86° |
| 2026-05-04 02:59 | -17.91485 | 176.98325 | 6748 ft | 280 kts | 86° |
| 2026-05-04 02:59 | -17.91396 | 177.00388 | 6445 ft | 278 kts | 86° |
| 2026-05-04 02:59 | -17.91310 | 177.02377 | 6151 ft | 275 kts | 86° |
| 2026-05-04 03:00 | -17.91220 | 177.04405 | 5851 ft | 273 kts | 86° |
| 2026-05-04 03:00 | -17.91132 | 177.06397 | 5555 ft | 271 kts | 87° |
| 2026-05-04 03:00 | -17.91047 | 177.08339 | 5277 ft | 268 kts | 87° |
| 2026-05-04 03:00 | -17.90959 | 177.10307 | 4996 ft | 266 kts | 87° |
| 2026-05-04 03:01 | -17.90874 | 177.12246 | 4716 ft | 266 kts | 87° |
| 2026-05-04 03:01 | -17.90790 | 177.14148 | 4435 ft | 262 kts | 88° |
| 2026-05-04 03:01 | -17.90707 | 177.16041 | 4161 ft | 259 kts | 87° |
| 2026-05-04 03:01 | -17.90622 | 177.17949 | 3865 ft | 258 kts | 88° |
| 2026-05-04 03:02 | -17.90541 | 177.19804 | 3619 ft | 258 kts | 88° |
| 2026-05-04 03:02 | -17.90455 | 177.21680 | 3351 ft | 254 kts | 88° |
| 2026-05-04 03:02 | -17.90373 | 177.23515 | 3079 ft | 252 kts | 88° |
| 2026-05-04 03:02 | -17.90292 | 177.25359 | 2984 ft | 252 kts | 88° |
| 2026-05-04 03:03 | -17.90211 | 177.27134 | 2981 ft | 236 kts | 88° |
| 2026-05-04 03:03 | -17.90103 | 177.28797 | 2977 ft | 220 kts | 84° |
| 2026-05-04 03:03 | -17.89829 | 177.30304 | 2970 ft | 200 kts | 76° |
| 2026-05-04 03:03 | -17.89380 | 177.31626 | 2982 ft | 186 kts | 69° |
| 2026-05-04 03:04 | -17.88790 | 177.32808 | 2990 ft | 181 kts | 62° |
| 2026-05-04 03:04 | -17.88066 | 177.33896 | 3031 ft | 183 kts | 54° |
| 2026-05-04 03:04 | -17.87180 | 177.34851 | 2996 ft | 185 kts | 44° |
| 2026-05-04 03:04 | -17.86171 | 177.35692 | 2876 ft | 185 kts | 41° |
| 2026-05-04 03:05 | -17.85163 | 177.36523 | 2503 ft | 184 kts | 41° |
| 2026-05-04 03:05 | -17.84142 | 177.37348 | 2024 ft | 187 kts | 41° |
| 2026-05-04 03:05 | -17.83111 | 177.38190 | 1552 ft | 188 kts | 42° |
| 2026-05-04 03:05 | -17.82101 | 177.39009 | 1241 ft | 174 kts | 41° |
| 2026-05-04 03:06 | -17.81182 | 177.39756 | 1030 ft | 161 kts | 41° |
| 2026-05-04 03:06 | -17.80334 | 177.40444 | 823 ft | 148 kts | 39° |
| 2026-05-04 03:06 | -17.79546 | 177.41083 | 647 ft | 140 kts | 37° |
| 2026-05-04 03:06 | -17.78777 | 177.41704 | 428 ft | 139 kts | 36° |
| 2026-05-04 03:07 | -17.78012 | 177.42323 | 261 ft | 139 kts | 34° |
| 2026-05-04 03:07 | -17.77231 | 177.42945 | 93 ft | 142 kts | 33° |
| 2026-05-04 03:07 | -17.76475 | 177.43548 | 47 ft | 125 kts | 38° |
| 2026-05-04 03:07 | -17.75869 | 177.44044 | 53 ft | 98 kts | 37° |
| 2026-05-04 03:08 | -17.75390 | 177.44430 | 49 ft | 76 kts | 37° |
| 2026-05-04 03:08 | -17.75110 | 177.44655 | 56 ft | 34 kts | 37° |
| 2026-05-04 03:08 | -17.75013 | 177.44756 | 53 ft | 15 kts | 75° |
| 2026-05-04 03:08 | -17.75027 | 177.44854 | 57 ft | 11 kts | 104° |
| 2026-05-04 03:09 | -17.75042 | 177.44916 | 55 ft | 1 kts | 104° |
| 2026-05-04 03:09 | -17.75044 | 177.44923 | 54 ft | 0 kts | 104° |
| 2026-05-04 03:09 | -17.75044 | 177.44924 | 52 ft | 2 kts | 104° |
| 2026-05-04 03:10 | -17.75053 | 177.44965 | 54 ft | 8 kts | 103° |
| 2026-05-04 03:10 | -17.75068 | 177.45030 | 60 ft | 11 kts | 103° |
| 2026-05-04 03:10 | -17.75078 | 177.45075 | 53 ft | 0 kts | 101° |
| 2026-05-04 03:10 | -17.75080 | 177.45078 | 54 ft | 2 kts | 120° |
| 2026-05-04 03:11 | -17.75095 | 177.45077 | 54 ft | 4 kts | 186° |
| 2026-05-04 03:11 | -17.75128 | 177.45071 | 56 ft | 4 kts | 191° |
| 2026-05-04 03:11 | -17.75134 | 177.45070 | 54 ft | 0 kts | 191° |
| 2026-05-04 03:11 | -17.75144 | 177.45068 | 55 ft | 2 kts | 191° |